createdAt,value
2022-10-09T00:01:37.551Z,955.91
2022-10-09T00:04:03.897Z,955.95
2022-10-09T00:06:30.231Z,956.02
2022-10-09T00:08:56.590Z,955.94
2022-10-09T00:11:22.906Z,955.87
2022-10-09T00:13:49.253Z,955.85
2022-10-09T00:16:15.655Z,955.86
2022-10-09T00:18:41.932Z,955.84
2022-10-09T00:21:08.255Z,955.80
2022-10-09T00:23:34.573Z,955.75
2022-10-09T00:26:00.894Z,955.80
2022-10-09T00:28:27.299Z,955.79
2022-10-09T00:30:53.693Z,955.75
2022-10-09T00:33:19.910Z,955.76
2022-10-09T00:35:46.230Z,955.71
2022-10-09T00:38:12.573Z,955.71
2022-10-09T00:40:38.891Z,955.68
2022-10-09T00:43:05.215Z,955.67
2022-10-09T00:45:31.540Z,955.65
2022-10-09T00:47:57.914Z,955.68
2022-10-09T00:50:24.228Z,955.61
2022-10-09T00:52:50.933Z,955.57
2022-10-09T00:55:16.909Z,955.55
2022-10-09T00:57:43.235Z,955.52
2022-10-09T01:00:09.572Z,955.53
2022-10-09T01:02:36.032Z,955.51
2022-10-09T01:05:02.234Z,955.52
2022-10-09T01:07:28.576Z,955.49
2022-10-09T01:09:54.896Z,955.54
2022-10-09T01:12:21.236Z,955.50
2022-10-09T01:14:47.690Z,955.55
2022-10-09T01:17:14.012Z,955.54
2022-10-09T01:19:40.346Z,955.54
2022-10-09T01:22:06.687Z,955.54
2022-10-09T01:24:33.005Z,955.52
2022-10-09T01:26:59.350Z,955.57
2022-10-09T01:29:25.689Z,955.54
2022-10-09T01:31:52.017Z,955.54
2022-10-09T01:34:18.381Z,955.54
2022-10-09T01:36:44.705Z,955.53
2022-10-09T01:39:11.023Z,955.51
2022-10-09T01:41:37.383Z,955.51
2022-10-09T01:44:03.721Z,955.52
2022-10-09T01:46:30.160Z,955.50
2022-10-09T01:48:56.362Z,955.45
2022-10-09T01:51:22.706Z,955.61
2022-10-09T01:53:49.042Z,955.53
2022-10-09T01:56:15.385Z,955.56
2022-10-09T01:58:41.700Z,955.54
2022-10-09T02:01:08.086Z,955.60
2022-10-09T02:03:34.351Z,955.52
2022-10-09T02:06:00.675Z,955.59
2022-10-09T02:08:27.016Z,955.66
2022-10-09T02:10:53.361Z,955.64
2022-10-09T02:13:19.696Z,955.66
2022-10-09T02:15:46.098Z,955.71
2022-10-09T02:18:12.354Z,955.75
2022-10-09T02:20:38.686Z,955.78
2022-10-09T02:23:05.042Z,955.77
2022-10-09T02:25:31.388Z,955.77
2022-10-09T02:27:57.721Z,955.79
2022-10-09T02:30:24.068Z,955.80
2022-10-09T02:32:50.606Z,955.79
2022-10-09T02:35:16.756Z,955.84
2022-10-09T02:37:43.074Z,955.85
2022-10-09T02:40:10.874Z,955.84
2022-10-09T02:42:35.795Z,955.84
2022-10-09T02:45:02.117Z,955.78
2022-10-09T02:47:28.497Z,955.86
2022-10-09T02:49:54.834Z,955.77
2022-10-09T02:52:21.169Z,955.83
2022-10-09T02:54:47.514Z,955.83
2022-10-09T02:57:13.830Z,955.79
2022-10-09T02:59:40.177Z,955.79
2022-10-09T03:02:06.662Z,955.89
2022-10-09T03:04:32.844Z,955.88
2022-10-09T03:06:59.209Z,955.87
2022-10-09T03:09:28.194Z,955.90
2022-10-09T03:11:51.864Z,955.91
2022-10-09T03:14:18.192Z,955.93
2022-10-09T03:16:44.513Z,956.00
2022-10-09T03:19:10.886Z,956.01
2022-10-09T03:21:37.226Z,956.00
2022-10-09T03:24:03.561Z,956.00
2022-10-09T03:26:29.900Z,956.09
2022-10-09T03:28:56.220Z,956.08
2022-10-09T03:31:47.034Z,956.07
2022-10-09T03:33:48.920Z,956.07
2022-10-09T03:36:15.259Z,956.04
2022-10-09T03:38:41.601Z,956.03
2022-10-09T03:41:07.943Z,956.12
2022-10-09T03:43:34.268Z,956.09
2022-10-09T03:46:01.259Z,956.12
2022-10-09T03:48:26.980Z,956.14
2022-10-09T03:50:53.298Z,956.19
2022-10-09T03:53:19.644Z,956.19
2022-10-09T03:55:45.984Z,956.14
2022-10-09T03:58:12.315Z,956.18
2022-10-09T04:00:38.701Z,956.14
2022-10-09T04:03:05.086Z,956.15
2022-10-09T04:05:31.339Z,956.15
2022-10-09T04:07:57.700Z,956.13
2022-10-09T04:10:24.014Z,956.09
2022-10-09T04:12:50.706Z,956.24
2022-10-09T04:15:16.685Z,956.17
2022-10-09T04:17:43.036Z,956.18
2022-10-09T04:20:09.382Z,956.24
2022-10-09T04:22:35.790Z,956.17
2022-10-09T04:25:02.112Z,956.22
2022-10-09T04:27:28.439Z,956.24
2022-10-09T04:29:54.777Z,956.20
2022-10-09T04:32:21.099Z,956.28
2022-10-09T04:34:47.423Z,956.23
2022-10-09T04:37:13.778Z,956.23
2022-10-09T04:39:40.119Z,956.28
2022-10-09T04:42:06.446Z,956.34
2022-10-09T04:44:32.788Z,956.32
2022-10-09T04:46:59.109Z,956.37
2022-10-09T04:49:25.620Z,956.34
2022-10-09T04:51:52.077Z,956.33
2022-10-09T04:54:18.402Z,956.36
2022-10-09T04:56:44.813Z,956.40
2022-10-09T04:59:11.245Z,956.41
2022-10-09T05:01:38.606Z,956.45
2022-10-09T05:04:03.910Z,956.45
2022-10-09T05:06:30.234Z,956.43
2022-10-09T05:08:56.598Z,956.45
2022-10-09T05:11:22.943Z,956.44
2022-10-09T05:13:49.280Z,956.51
2022-10-09T05:16:15.635Z,956.51
2022-10-09T05:18:41.974Z,956.57
2022-10-09T05:21:08.313Z,956.53
2022-10-09T05:23:34.624Z,956.53
2022-10-09T05:26:01.008Z,956.52
2022-10-09T05:28:27.406Z,956.60
2022-10-09T05:30:53.664Z,956.59
2022-10-09T05:33:20.056Z,956.65
2022-10-09T05:35:46.343Z,956.70
2022-10-09T05:38:12.680Z,956.68
2022-10-09T05:40:39.010Z,956.72
2022-10-09T05:43:05.353Z,956.74
2022-10-09T05:45:31.762Z,956.72
2022-10-09T05:47:58.065Z,956.70
2022-10-09T05:50:24.404Z,956.69
2022-10-09T05:52:50.943Z,956.75
2022-10-09T05:55:17.105Z,956.74
2022-10-09T05:57:43.440Z,956.80
2022-10-09T06:00:09.816Z,956.79
2022-10-09T06:02:36.260Z,956.85
2022-10-09T06:05:02.508Z,956.88
2022-10-09T06:07:28.870Z,956.92
2022-10-09T06:09:55.211Z,956.96
2022-10-09T06:12:21.534Z,956.99
2022-10-09T06:14:47.862Z,957.00
2022-10-09T06:17:14.225Z,957.07
2022-10-09T06:19:40.559Z,957.04
2022-10-09T06:22:06.902Z,957.05
2022-10-09T06:24:33.255Z,957.07
2022-10-09T06:26:59.597Z,957.14
2022-10-09T06:29:25.935Z,957.11
2022-10-09T06:31:52.263Z,957.18
2022-10-09T06:34:18.582Z,957.18
2022-10-09T06:36:44.950Z,957.16
2022-10-09T06:39:11.271Z,957.19
2022-10-09T06:41:37.645Z,957.21
2022-10-09T06:44:03.986Z,957.22
2022-10-09T06:46:30.430Z,957.22
2022-10-09T06:48:56.737Z,957.21
2022-10-09T06:51:23.078Z,957.36
2022-10-09T06:53:49.418Z,957.28
2022-10-09T06:56:15.767Z,957.30
2022-10-09T06:58:42.111Z,957.17
2022-10-09T07:01:08.487Z,957.18
2022-10-09T07:03:34.806Z,957.21
2022-10-09T07:06:01.119Z,957.27
2022-10-09T07:08:27.442Z,957.26
2022-10-09T07:10:53.786Z,957.28
2022-10-09T07:13:20.106Z,957.29
2022-10-09T07:15:46.475Z,957.28
2022-10-09T07:18:12.772Z,957.28
2022-10-09T07:20:39.091Z,957.24
2022-10-09T07:23:05.428Z,957.33
2022-10-09T07:25:31.788Z,957.30
2022-10-09T07:27:58.123Z,957.39
2022-10-09T07:30:24.463Z,957.39
2022-10-09T07:32:51.377Z,957.35
2022-10-09T07:35:17.145Z,957.37
2022-10-09T07:37:43.496Z,957.41
2022-10-09T07:40:09.821Z,957.43
2022-10-09T07:42:36.139Z,957.45
2022-10-09T07:45:02.512Z,957.44
2022-10-09T07:47:28.841Z,957.40
2022-10-09T07:49:55.187Z,957.42
2022-10-09T07:52:21.508Z,957.43
2022-10-09T07:54:47.849Z,957.42
2022-10-09T07:57:14.186Z,957.41
2022-10-09T07:59:40.543Z,957.43
2022-10-09T08:02:06.911Z,957.39
2022-10-09T08:04:33.207Z,957.36
2022-10-09T08:06:59.532Z,957.37
2022-10-09T08:09:25.907Z,957.27
2022-10-09T08:11:52.245Z,957.32
2022-10-09T08:14:19.580Z,957.31
2022-10-09T08:16:44.952Z,957.31
2022-10-09T08:19:11.306Z,957.28
2022-10-09T08:21:37.627Z,957.23
2022-10-09T08:24:03.954Z,957.23
2022-10-09T08:26:30.272Z,957.25
2022-10-09T08:28:56.597Z,957.22
2022-10-09T08:31:22.982Z,957.23
2022-10-09T08:33:49.255Z,957.22
2022-10-09T08:36:15.594Z,957.23
2022-10-09T08:38:49.131Z,957.24
2022-10-09T08:41:08.292Z,957.22
2022-10-09T08:43:34.613Z,957.21
2022-10-09T08:46:00.974Z,957.20
2022-10-09T08:48:27.294Z,957.22
2022-10-09T08:50:53.632Z,957.16
2022-10-09T08:53:19.970Z,957.12
2022-10-09T08:55:46.343Z,956.99
2022-10-09T08:58:12.662Z,957.00
2022-10-09T09:00:39.016Z,956.91
2022-10-09T09:03:05.388Z,956.93
2022-10-09T09:05:31.791Z,956.91
2022-10-09T09:07:58.118Z,956.85
2022-10-09T09:10:24.458Z,956.85
2022-10-09T09:12:51.423Z,956.79
2022-10-09T09:15:17.137Z,956.85
2022-10-09T09:17:43.485Z,956.81
2022-10-09T09:20:09.823Z,956.83
2022-10-09T09:22:36.159Z,956.86
2022-10-09T09:25:02.491Z,956.86
2022-10-09T09:27:28.816Z,956.78
2022-10-09T09:29:55.152Z,956.77
2022-10-09T09:32:21.554Z,956.84
2022-10-09T09:34:47.879Z,956.82
2022-10-09T09:37:14.218Z,956.90
2022-10-09T09:42:06.923Z,956.78
2022-10-09T09:44:33.241Z,956.81
2022-10-09T09:46:59.593Z,956.83
2022-10-09T09:49:25.945Z,956.86
2022-10-09T09:51:52.286Z,956.85
2022-10-09T09:54:18.622Z,956.88
2022-10-09T09:57:12.936Z,956.85
2022-10-09T09:59:11.317Z,956.83
2022-10-09T10:01:37.710Z,956.82
2022-10-09T10:04:03.975Z,956.88
2022-10-09T10:06:30.319Z,956.82
2022-10-09T10:08:56.667Z,956.78
2022-10-09T10:11:23.045Z,956.74
2022-10-09T10:13:49.384Z,956.75
2022-10-09T10:16:15.792Z,956.75
2022-10-09T10:18:42.079Z,956.77
2022-10-09T10:21:08.403Z,956.74
2022-10-09T10:23:34.744Z,956.77
2022-10-09T10:26:01.082Z,956.80
2022-10-09T10:28:27.462Z,956.85
2022-10-09T10:30:53.764Z,956.80
2022-10-09T10:33:20.130Z,956.75
2022-10-09T10:35:46.533Z,956.74
2022-10-09T10:38:12.880Z,956.74
2022-10-09T10:40:39.206Z,956.70
2022-10-09T10:43:05.526Z,956.70
2022-10-09T10:45:31.854Z,956.61
2022-10-09T10:47:58.209Z,956.58
2022-10-09T10:50:24.552Z,956.61
2022-10-09T10:52:50.918Z,956.52
2022-10-09T10:55:17.267Z,956.50
2022-10-09T10:57:43.600Z,956.43
2022-10-09T11:00:09.949Z,956.43
2022-10-09T11:02:40.948Z,956.41
2022-10-09T11:05:02.624Z,956.29
2022-10-09T11:07:28.944Z,956.34
2022-10-09T11:09:55.269Z,956.32
2022-10-09T11:12:43.389Z,956.20
2022-10-09T11:14:48.023Z,956.16
2022-10-09T11:17:14.368Z,956.17
2022-10-09T11:19:45.248Z,956.13
2022-10-09T11:22:07.084Z,956.16
2022-10-09T11:24:33.406Z,956.04
2022-10-09T11:27:03.376Z,956.04
2022-10-09T11:29:26.088Z,956.05
2022-10-09T11:31:52.488Z,955.94
2022-10-09T11:34:18.779Z,956.00
2022-10-09T11:36:45.128Z,955.94
2022-10-09T11:39:11.453Z,955.89
2022-10-09T11:41:37.797Z,955.92
2022-10-09T11:44:04.153Z,955.89
2022-10-09T11:46:30.492Z,955.85
2022-10-09T11:48:56.819Z,955.83
2022-10-09T11:51:23.161Z,955.80
2022-10-09T11:53:49.500Z,955.76
2022-10-09T11:56:15.814Z,955.75
2022-10-09T11:58:42.143Z,955.76
2022-10-09T12:01:08.593Z,955.74
2022-10-09T12:03:34.878Z,955.69
2022-10-09T12:06:01.230Z,955.66
2022-10-09T12:08:27.607Z,955.63
2022-10-09T12:10:53.916Z,955.70
2022-10-09T12:13:20.276Z,955.66
2022-10-09T12:15:46.629Z,955.63
2022-10-09T12:18:12.924Z,955.68
2022-10-09T12:20:39.246Z,955.66
2022-10-09T12:23:25.881Z,955.65
2022-10-09T12:25:31.905Z,955.64
2022-10-09T12:27:58.245Z,955.58
2022-10-09T12:30:24.621Z,955.56
2022-10-09T12:32:51.287Z,955.51
2022-10-09T12:35:17.287Z,955.55
2022-10-09T12:37:43.687Z,955.53
2022-10-09T12:40:10.023Z,955.55
2022-10-09T12:42:36.371Z,955.57
2022-10-09T12:45:02.724Z,955.51
2022-10-09T12:47:29.047Z,955.47
2022-10-09T12:49:55.379Z,955.55
2022-10-09T12:52:21.710Z,955.59
2022-10-09T12:54:48.064Z,955.54
2022-10-09T12:57:14.426Z,955.58
2022-10-09T12:59:40.738Z,955.57
2022-10-09T13:02:07.264Z,955.58
2022-10-09T13:04:33.455Z,955.58
2022-10-09T13:06:59.806Z,955.54
2022-10-09T13:09:26.146Z,955.48
2022-10-09T13:11:52.535Z,955.50
2022-10-09T13:14:18.849Z,955.49
2022-10-09T13:16:45.237Z,955.48
2022-10-09T13:19:11.534Z,955.50
2022-10-09T13:21:37.882Z,955.41
2022-10-09T13:24:04.217Z,955.44
2022-10-09T13:26:30.580Z,955.36
2022-10-09T13:28:56.901Z,955.37
2022-10-09T13:31:23.225Z,955.40
2022-10-09T13:33:49.568Z,955.44
2022-10-09T13:36:15.911Z,955.44
2022-10-09T13:38:42.228Z,955.46
2022-10-09T13:41:08.556Z,955.39
2022-10-09T13:43:34.879Z,955.40
2022-10-09T13:46:01.240Z,955.44
2022-10-09T13:48:27.580Z,955.47
2022-10-09T13:50:53.920Z,955.46
2022-10-09T13:53:20.252Z,955.47
2022-10-09T13:55:46.609Z,955.46
2022-10-09T13:58:12.959Z,955.47
2022-10-09T14:00:39.282Z,955.43
2022-10-09T14:03:05.617Z,955.44
2022-10-09T14:05:31.966Z,955.41
2022-10-09T14:07:58.416Z,955.49
2022-10-09T14:10:24.749Z,955.51
2022-10-09T14:12:51.623Z,955.50
2022-10-09T14:15:17.430Z,955.44
2022-10-09T14:17:43.776Z,955.41
2022-10-09T14:20:10.106Z,955.42
2022-10-09T14:22:36.424Z,955.49
2022-10-09T14:25:02.776Z,955.47
2022-10-09T14:27:29.134Z,955.53
2022-10-09T14:29:57.319Z,955.46
2022-10-09T14:32:21.804Z,955.45
2022-10-09T14:34:48.156Z,955.50
2022-10-09T14:37:24.062Z,955.56
2022-10-09T14:39:40.818Z,955.50
2022-10-09T14:42:07.152Z,955.53
2022-10-09T14:44:33.483Z,955.62
2022-10-09T14:46:59.822Z,955.60
2022-10-09T14:49:26.165Z,955.58
2022-10-09T14:51:52.551Z,955.52
2022-10-09T14:54:18.874Z,955.54
2022-10-09T14:56:45.253Z,955.53
2022-10-09T14:59:11.593Z,955.69
2022-10-09T15:01:37.918Z,955.69
2022-10-09T15:04:04.343Z,955.62
2022-10-09T15:06:30.595Z,955.67
2022-10-09T15:08:59.242Z,955.64
2022-10-09T15:11:23.283Z,955.67
2022-10-09T15:13:49.584Z,955.70
2022-10-09T15:16:15.910Z,955.71
2022-10-09T15:18:42.258Z,955.76
2022-10-09T15:21:08.601Z,955.72
2022-10-09T15:23:34.923Z,955.73
2022-10-09T15:26:01.247Z,955.74
2022-10-09T15:28:27.667Z,955.79
2022-10-09T15:30:53.945Z,955.85
2022-10-09T15:33:20.284Z,955.80
2022-10-09T15:35:46.610Z,955.92
2022-10-09T15:38:12.950Z,955.96
2022-10-09T15:40:39.287Z,955.96
2022-10-09T15:43:05.614Z,955.90
2022-10-09T15:45:31.930Z,956.04
2022-10-09T15:47:58.277Z,956.06
2022-10-09T15:50:24.595Z,956.07
2022-10-09T15:52:51.231Z,956.10
2022-10-09T15:55:17.301Z,956.08
2022-10-09T15:57:43.656Z,956.11
2022-10-09T16:00:10.031Z,956.14
2022-10-09T16:02:36.382Z,956.21
2022-10-09T16:05:02.707Z,956.22
2022-10-09T16:07:29.041Z,956.22
2022-10-09T16:09:55.376Z,956.27
2022-10-09T16:12:21.689Z,956.25
2022-10-09T16:14:48.076Z,956.29
2022-10-09T16:17:14.391Z,956.31
2022-10-09T16:19:40.715Z,956.37
2022-10-09T16:22:07.108Z,956.36
2022-10-09T16:24:33.471Z,956.50
2022-10-09T16:26:59.831Z,956.48
2022-10-09T16:29:26.182Z,956.54
2022-10-09T16:31:52.502Z,956.54
2022-10-09T16:34:18.881Z,956.55
2022-10-09T16:36:45.190Z,956.59
2022-10-09T16:39:11.537Z,956.57
2022-10-09T16:41:41.789Z,956.59
2022-10-09T16:44:04.216Z,956.62
2022-10-09T16:46:30.681Z,956.71
2022-10-09T16:48:56.977Z,956.75
2022-10-09T16:51:23.325Z,956.76
2022-10-09T16:53:49.696Z,956.79
2022-10-09T16:56:16.017Z,956.85
2022-10-09T16:58:42.340Z,956.86
2022-10-09T17:01:10.207Z,956.86
2022-10-09T17:03:35.005Z,956.90
2022-10-09T17:06:01.320Z,956.96
2022-10-09T17:08:27.722Z,956.93
2022-10-09T17:10:54.189Z,956.99
2022-10-09T17:13:20.535Z,957.00
2022-10-09T17:15:46.881Z,957.06
2022-10-09T17:18:13.199Z,957.06
2022-10-09T17:20:39.526Z,957.01
2022-10-09T17:23:05.848Z,957.07
2022-10-09T17:25:32.170Z,957.10
2022-10-09T17:27:58.529Z,957.09
2022-10-09T17:30:24.862Z,957.21
2022-10-09T17:32:51.611Z,957.18
2022-10-09T17:35:17.564Z,957.22
2022-10-09T17:37:43.884Z,957.31
2022-10-09T17:40:10.227Z,957.32
2022-10-09T17:42:36.565Z,957.36
2022-10-09T17:45:02.890Z,957.35
2022-10-09T17:47:29.211Z,957.34
2022-10-09T17:49:55.527Z,957.35
2022-10-09T17:52:21.857Z,957.32
2022-10-09T17:54:48.177Z,957.35
2022-10-09T17:57:14.561Z,957.33
2022-10-09T17:59:40.889Z,957.35
2022-10-09T18:02:07.245Z,957.39
2022-10-09T18:04:33.577Z,957.48
2022-10-09T18:06:59.910Z,957.45
2022-10-09T18:09:26.283Z,957.47
2022-10-09T18:11:52.624Z,957.48
2022-10-09T18:14:18.942Z,957.49
2022-10-09T18:16:45.300Z,957.49
2022-10-09T18:19:11.620Z,957.47
2022-10-09T18:21:37.945Z,957.47
2022-10-09T18:24:04.287Z,957.50
2022-10-09T18:26:30.608Z,957.50
2022-10-09T18:28:56.947Z,957.49
2022-10-09T18:31:23.271Z,957.48
2022-10-09T18:33:49.671Z,957.49
2022-10-09T18:36:16.010Z,957.54
2022-10-09T18:38:42.348Z,957.53
2022-10-09T18:41:08.673Z,957.63
2022-10-09T18:43:34.990Z,957.63
2022-10-09T18:46:01.367Z,957.62
2022-10-09T18:48:27.707Z,957.65
2022-10-09T18:50:54.051Z,957.65
2022-10-09T18:53:20.436Z,957.68
2022-10-09T18:55:46.803Z,957.70
2022-10-09T18:58:13.142Z,957.74
2022-10-09T19:00:39.531Z,957.82
2022-10-09T19:03:05.805Z,957.84
2022-10-09T19:05:32.155Z,957.81
2022-10-09T19:07:58.474Z,957.90
2022-10-09T19:10:24.802Z,957.89
2022-10-09T19:12:51.168Z,957.89
2022-10-09T19:15:17.495Z,957.97
2022-10-09T19:17:43.835Z,957.91
2022-10-09T19:20:10.199Z,958.02
2022-10-09T19:22:36.561Z,958.00
2022-10-09T19:25:02.902Z,958.03
2022-10-09T19:27:29.246Z,958.02
2022-10-09T19:29:55.573Z,958.05
2022-10-09T19:32:23.905Z,958.10
2022-10-09T19:34:48.263Z,958.09
2022-10-09T19:37:14.582Z,958.10
2022-10-09T19:39:40.939Z,958.13
2022-10-09T19:42:07.275Z,958.15
2022-10-09T19:44:33.594Z,958.19
2022-10-09T19:46:59.946Z,958.16
2022-10-09T19:49:26.276Z,958.25
2022-10-09T19:51:52.592Z,958.23
2022-10-09T19:54:19.002Z,958.13
2022-10-09T19:56:45.307Z,958.19
2022-10-09T19:59:11.627Z,958.21
2022-10-09T20:01:38.096Z,958.26
2022-10-09T20:04:04.296Z,958.28
2022-10-09T20:06:30.636Z,958.27
2022-10-09T20:08:56.960Z,958.30
2022-10-09T20:11:23.315Z,958.28
2022-10-09T20:13:53.437Z,958.36
2022-10-09T20:16:15.981Z,958.40
2022-10-09T20:18:42.529Z,958.41
2022-10-09T20:21:08.639Z,958.44
2022-10-09T20:23:35.029Z,958.47
2022-10-09T20:26:01.365Z,958.58
2022-10-09T20:28:27.770Z,958.50
2022-10-09T20:30:54.039Z,958.49
2022-10-09T20:33:20.362Z,958.51
2022-10-09T20:35:46.700Z,958.49
2022-10-09T20:38:13.073Z,958.48
2022-10-09T20:40:39.407Z,958.51
2022-10-09T20:43:05.747Z,958.52
2022-10-09T20:45:32.062Z,958.54
2022-10-09T20:47:58.386Z,958.52
2022-10-09T20:50:24.729Z,958.51
2022-10-09T20:52:51.345Z,958.53
2022-10-09T20:55:17.435Z,958.59
2022-10-09T20:57:44.882Z,958.58
2022-10-09T21:00:11.219Z,958.56
2022-10-09T21:02:37.564Z,958.59
2022-10-09T21:05:03.886Z,958.64
2022-10-09T21:07:30.262Z,958.64
2022-10-09T21:09:56.598Z,958.64
2022-10-09T21:12:22.938Z,958.59
2022-10-09T21:14:49.330Z,958.53
2022-10-09T21:17:15.659Z,958.55
2022-10-09T21:19:41.992Z,958.48
2022-10-09T21:22:08.340Z,958.48
2022-10-09T21:24:34.703Z,958.45
2022-10-09T21:27:01.043Z,958.54
2022-10-09T21:29:27.687Z,958.50
2022-10-09T21:31:54.036Z,958.55
2022-10-09T21:34:20.354Z,958.53
2022-10-09T21:37:08.884Z,958.49
2022-10-09T21:39:13.067Z,958.49
2022-10-09T21:41:39.407Z,958.53
2022-10-09T21:44:05.742Z,958.49
2022-10-09T21:46:32.083Z,958.54
2022-10-09T21:48:58.429Z,958.55
2022-10-09T21:51:24.773Z,958.46
2022-10-09T21:53:51.108Z,958.55
2022-10-09T21:56:17.472Z,958.56
2022-10-09T21:58:48.758Z,958.60
2022-10-09T22:01:10.154Z,958.60
2022-10-09T22:03:36.428Z,958.57
2022-10-09T22:06:02.753Z,958.49
2022-10-09T22:08:29.093Z,958.46
2022-10-09T22:10:55.453Z,958.49
2022-10-09T22:13:21.791Z,958.51
2022-10-09T22:15:51.192Z,958.47
2022-10-09T22:18:14.492Z,958.46
2022-10-09T22:20:40.813Z,958.47
2022-10-09T22:23:07.149Z,958.58
2022-10-09T22:25:33.519Z,958.62
2022-10-09T22:27:59.856Z,958.61
2022-10-09T22:30:26.181Z,958.65
2022-10-09T22:32:52.922Z,958.69
2022-10-09T22:35:18.879Z,958.64
2022-10-09T22:37:45.213Z,958.67
2022-10-09T22:40:11.575Z,958.71
2022-10-09T22:42:37.896Z,958.72
2022-10-09T22:45:04.217Z,958.80
2022-10-09T22:47:30.576Z,958.86
2022-10-09T22:49:56.899Z,958.90
2022-10-09T22:52:23.225Z,958.98
2022-10-09T22:54:49.569Z,958.96
2022-10-09T22:57:15.943Z,959.01
2022-10-09T22:59:42.262Z,959.05
2022-10-09T23:02:08.613Z,959.07
2022-10-09T23:04:34.981Z,959.01
2022-10-09T23:07:01.298Z,959.05
2022-10-09T23:09:27.628Z,959.01
2022-10-09T23:11:54.006Z,959.07
2022-10-09T23:14:20.323Z,959.16
2022-10-09T23:16:46.664Z,959.18
2022-10-09T23:19:13.010Z,959.14
2022-10-09T23:21:39.366Z,959.14
2022-10-09T23:24:05.690Z,959.19
2022-10-09T23:26:32.008Z,959.18
2022-10-09T23:28:58.374Z,959.20
2022-10-09T23:31:24.700Z,959.20
2022-10-09T23:33:51.045Z,959.18
2022-10-09T23:36:17.401Z,959.23
2022-10-09T23:38:43.747Z,959.26
2022-10-09T23:41:10.083Z,959.21
2022-10-09T23:43:36.431Z,959.20
2022-10-09T23:46:02.762Z,959.13
2022-10-09T23:48:29.121Z,959.19
2022-10-09T23:50:55.436Z,959.26
2022-10-09T23:53:21.779Z,959.27
2022-10-09T23:55:48.126Z,959.32
2022-10-09T23:58:18.520Z,959.34
